sensor_id;sensor_type;location;lat;lon;timestamp;P1;durP1;ratioP1;P2;durP2;ratioP2
52708;SDS011;38606;52.986;6.980;2023-04-22T00:02:08;9.85;;;6.38;;
52708;SDS011;38606;52.986;6.980;2023-04-22T00:04:38;6.30;;;5.30;;
52708;SDS011;38606;52.986;6.980;2023-04-22T00:07:05;8.82;;;5.78;;
52708;SDS011;38606;52.986;6.980;2023-04-22T00:09:31;9.13;;;6.43;;
52708;SDS011;38606;52.986;6.980;2023-04-22T00:11:57;9.20;;;6.63;;
52708;SDS011;38606;52.986;6.980;2023-04-22T00:14:23;8.82;;;6.50;;
52708;SDS011;38606;52.986;6.980;2023-04-22T00:16:49;9.20;;;6.53;;
52708;SDS011;38606;52.986;6.980;2023-04-22T00:19:15;9.55;;;6.60;;
52708;SDS011;38606;52.986;6.980;2023-04-22T00:21:40;10.15;;;7.10;;
52708;SDS011;38606;52.986;6.980;2023-04-22T00:24:06;8.20;;;6.50;;
52708;SDS011;38606;52.986;6.980;2023-04-22T00:26:32;9.00;;;6.80;;
52708;SDS011;38606;52.986;6.980;2023-04-22T00:28:58;10.50;;;7.43;;
52708;SDS011;38606;52.986;6.980;2023-04-22T00:31:23;8.52;;;7.63;;
52708;SDS011;38606;52.986;6.980;2023-04-22T00:33:49;11.57;;;8.73;;
52708;SDS011;38606;52.986;6.980;2023-04-22T00:36:15;12.65;;;8.90;;
52708;SDS011;38606;52.986;6.980;2023-04-22T00:38:41;14.07;;;9.77;;
52708;SDS011;38606;52.986;6.980;2023-04-22T00:41:17;12.50;;;9.82;;
52708;SDS011;38606;52.986;6.980;2023-04-22T00:43:44;11.65;;;9.95;;
52708;SDS011;38606;52.986;6.980;2023-04-22T00:46:10;13.60;;;10.63;;
52708;SDS011;38606;52.986;6.980;2023-04-22T00:48:36;13.48;;;10.55;;
52708;SDS011;38606;52.986;6.980;2023-04-22T00:51:03;12.77;;;10.88;;
52708;SDS011;38606;52.986;6.980;2023-04-22T00:53:29;13.57;;;10.73;;
52708;SDS011;38606;52.986;6.980;2023-04-22T00:55:54;17.13;;;12.52;;
52708;SDS011;38606;52.986;6.980;2023-04-22T00:58:21;13.95;;;12.32;;
52708;SDS011;38606;52.986;6.980;2023-04-22T01:00:50;13.38;;;10.95;;
52708;SDS011;38606;52.986;6.980;2023-04-22T01:03:16;16.73;;;12.02;;
52708;SDS011;38606;52.986;6.980;2023-04-22T01:05:44;18.02;;;12.40;;
52708;SDS011;38606;52.986;6.980;2023-04-22T01:08:12;14.07;;;10.65;;
52708;SDS011;38606;52.986;6.980;2023-04-22T01:10:38;13.43;;;10.45;;
52708;SDS011;38606;52.986;6.980;2023-04-22T01:13:05;12.48;;;9.35;;
52708;SDS011;38606;52.986;6.980;2023-04-22T01:15:31;12.63;;;9.65;;
52708;SDS011;38606;52.986;6.980;2023-04-22T01:17:57;12.05;;;8.98;;
52708;SDS011;38606;52.986;6.980;2023-04-22T01:20:26;10.88;;;9.18;;
52708;SDS011;38606;52.986;6.980;2023-04-22T01:22:56;11.95;;;9.10;;
52708;SDS011;38606;52.986;6.980;2023-04-22T01:25:26;9.82;;;8.85;;
52708;SDS011;38606;52.986;6.980;2023-04-22T01:27:52;11.80;;;8.65;;
52708;SDS011;38606;52.986;6.980;2023-04-22T01:30:18;11.48;;;8.30;;
52708;SDS011;38606;52.986;6.980;2023-04-22T01:32:44;9.55;;;7.95;;
52708;SDS011;38606;52.986;6.980;2023-04-22T01:35:11;9.45;;;7.90;;
52708;SDS011;38606;52.986;6.980;2023-04-22T01:37:37;11.60;;;8.63;;
52708;SDS011;38606;52.986;6.980;2023-04-22T01:40:03;10.98;;;8.73;;
52708;SDS011;38606;52.986;6.980;2023-04-22T01:42:30;11.52;;;9.15;;
52708;SDS011;38606;52.986;6.980;2023-04-22T01:44:56;12.10;;;8.95;;
52708;SDS011;38606;52.986;6.980;2023-04-22T01:47:22;11.30;;;9.27;;
52708;SDS011;38606;52.986;6.980;2023-04-22T01:49:48;17.60;;;9.27;;
52708;SDS011;38606;52.986;6.980;2023-04-22T01:52:14;13.00;;;9.95;;
52708;SDS011;38606;52.986;6.980;2023-04-22T01:54:40;13.15;;;9.70;;
52708;SDS011;38606;52.986;6.980;2023-04-22T01:57:09;10.93;;;8.40;;
52708;SDS011;38606;52.986;6.980;2023-04-22T01:59:38;11.40;;;9.88;;
52708;SDS011;38606;52.986;6.980;2023-04-22T02:02:04;11.13;;;8.73;;
52708;SDS011;38606;52.986;6.980;2023-04-22T02:04:30;15.57;;;9.80;;
52708;SDS011;38606;52.986;6.980;2023-04-22T02:06:56;12.68;;;8.93;;
52708;SDS011;38606;52.986;6.980;2023-04-22T02:09:21;11.50;;;9.55;;
52708;SDS011;38606;52.986;6.980;2023-04-22T02:11:47;14.38;;;9.85;;
52708;SDS011;38606;52.986;6.980;2023-04-22T02:14:13;16.15;;;10.20;;
52708;SDS011;38606;52.986;6.980;2023-04-22T02:16:42;13.57;;;10.30;;
52708;SDS011;38606;52.986;6.980;2023-04-22T02:19:08;12.10;;;9.73;;
52708;SDS011;38606;52.986;6.980;2023-04-22T02:21:34;13.32;;;9.50;;
52708;SDS011;38606;52.986;6.980;2023-04-22T02:24:00;12.32;;;9.63;;
52708;SDS011;38606;52.986;6.980;2023-04-22T02:26:26;11.88;;;9.05;;
52708;SDS011;38606;52.986;6.980;2023-04-22T02:28:52;10.73;;;9.63;;
52708;SDS011;38606;52.986;6.980;2023-04-22T02:31:17;11.55;;;9.40;;
52708;SDS011;38606;52.986;6.980;2023-04-22T02:33:43;9.95;;;8.85;;
52708;SDS011;38606;52.986;6.980;2023-04-22T02:36:09;11.65;;;9.95;;
52708;SDS011;38606;52.986;6.980;2023-04-22T02:38:35;10.60;;;9.30;;
52708;SDS011;38606;52.986;6.980;2023-04-22T02:41:01;11.50;;;9.80;;
52708;SDS011;38606;52.986;6.980;2023-04-22T02:43:27;14.57;;;9.07;;
52708;SDS011;38606;52.986;6.980;2023-04-22T02:45:53;10.05;;;8.98;;
52708;SDS011;38606;52.986;6.980;2023-04-22T02:48:19;13.27;;;9.13;;
52708;SDS011;38606;52.986;6.980;2023-04-22T02:50:44;11.60;;;9.35;;
52708;SDS011;38606;52.986;6.980;2023-04-22T02:53:10;11.00;;;9.43;;
52708;SDS011;38606;52.986;6.980;2023-04-22T02:55:37;12.82;;;10.05;;
52708;SDS011;38606;52.986;6.980;2023-04-22T02:58:05;16.83;;;10.30;;
52708;SDS011;38606;52.986;6.980;2023-04-22T03:00:31;12.75;;;10.00;;
52708;SDS011;38606;52.986;6.980;2023-04-22T03:02:56;13.50;;;10.98;;
52708;SDS011;38606;52.986;6.980;2023-04-22T03:05:22;14.35;;;10.50;;
52708;SDS011;38606;52.986;6.980;2023-04-22T03:07:48;12.95;;;10.15;;
52708;SDS011;38606;52.986;6.980;2023-04-22T03:10:13;13.18;;;10.93;;
52708;SDS011;38606;52.986;6.980;2023-04-22T03:12:39;11.52;;;10.32;;
52708;SDS011;38606;52.986;6.980;2023-04-22T03:15:05;12.77;;;10.52;;
52708;SDS011;38606;52.986;6.980;2023-04-22T03:17:32;14.40;;;11.02;;
52708;SDS011;38606;52.986;6.980;2023-04-22T03:19:57;11.98;;;10.70;;
52708;SDS011;38606;52.986;6.980;2023-04-22T03:22:23;14.02;;;10.45;;
52708;SDS011;38606;52.986;6.980;2023-04-22T03:24:49;11.18;;;9.82;;
52708;SDS011;38606;52.986;6.980;2023-04-22T03:27:14;12.82;;;10.20;;
52708;SDS011;38606;52.986;6.980;2023-04-22T03:29:40;13.35;;;10.25;;
52708;SDS011;38606;52.986;6.980;2023-04-22T03:32:06;17.48;;;11.10;;
52708;SDS011;38606;52.986;6.980;2023-04-22T03:34:31;13.48;;;9.40;;
52708;SDS011;38606;52.986;6.980;2023-04-22T03:36:57;13.27;;;10.63;;
52708;SDS011;38606;52.986;6.980;2023-04-22T03:39:23;12.00;;;9.98;;
52708;SDS011;38606;52.986;6.980;2023-04-22T03:41:49;12.82;;;10.40;;
52708;SDS011;38606;52.986;6.980;2023-04-22T03:44:14;12.98;;;10.35;;
52708;SDS011;38606;52.986;6.980;2023-04-22T03:46:40;13.38;;;9.82;;
52708;SDS011;38606;52.986;6.980;2023-04-22T03:49:06;13.25;;;10.10;;
52708;SDS011;38606;52.986;6.980;2023-04-22T03:51:31;16.35;;;10.20;;
52708;SDS011;38606;52.986;6.980;2023-04-22T03:53:57;12.60;;;10.43;;
52708;SDS011;38606;52.986;6.980;2023-04-22T03:56:23;11.52;;;10.05;;
52708;SDS011;38606;52.986;6.980;2023-04-22T03:58:49;12.32;;;10.07;;
52708;SDS011;38606;52.986;6.980;2023-04-22T04:01:15;14.57;;;10.45;;
52708;SDS011;38606;52.986;6.980;2023-04-22T04:03:41;12.70;;;9.85;;
52708;SDS011;38606;52.986;6.980;2023-04-22T04:06:06;12.50;;;9.77;;
52708;SDS011;38606;52.986;6.980;2023-04-22T04:08:32;13.10;;;10.65;;
52708;SDS011;38606;52.986;6.980;2023-04-22T04:10:58;14.13;;;10.48;;
52708;SDS011;38606;52.986;6.980;2023-04-22T04:13:23;14.05;;;9.60;;
52708;SDS011;38606;52.986;6.980;2023-04-22T04:15:49;13.90;;;10.00;;
52708;SDS011;38606;52.986;6.980;2023-04-22T04:18:16;13.35;;;10.38;;
52708;SDS011;38606;52.986;6.980;2023-04-22T04:20:42;13.18;;;10.18;;
52708;SDS011;38606;52.986;6.980;2023-04-22T04:23:07;13.45;;;11.20;;
52708;SDS011;38606;52.986;6.980;2023-04-22T04:25:33;15.25;;;10.02;;
52708;SDS011;38606;52.986;6.980;2023-04-22T04:28:04;14.43;;;11.05;;
52708;SDS011;38606;52.986;6.980;2023-04-22T04:30:33;14.23;;;9.68;;
52708;SDS011;38606;52.986;6.980;2023-04-22T04:33:00;12.77;;;10.68;;
52708;SDS011;38606;52.986;6.980;2023-04-22T04:35:31;17.02;;;10.90;;
52708;SDS011;38606;52.986;6.980;2023-04-22T04:38:00;12.15;;;9.90;;
52708;SDS011;38606;52.986;6.980;2023-04-22T04:40:26;15.13;;;9.77;;
52708;SDS011;38606;52.986;6.980;2023-04-22T04:42:55;14.45;;;10.23;;
52708;SDS011;38606;52.986;6.980;2023-04-22T04:45:24;12.88;;;10.98;;
52708;SDS011;38606;52.986;6.980;2023-04-22T04:47:50;13.38;;;10.00;;
52708;SDS011;38606;52.986;6.980;2023-04-22T04:50:19;12.30;;;9.23;;
52708;SDS011;38606;52.986;6.980;2023-04-22T04:52:46;14.77;;;11.35;;
52708;SDS011;38606;52.986;6.980;2023-04-22T04:55:15;12.98;;;10.85;;
52708;SDS011;38606;52.986;6.980;2023-04-22T04:57:42;14.07;;;11.15;;
52708;SDS011;38606;52.986;6.980;2023-04-22T05:00:09;12.88;;;9.68;;
52708;SDS011;38606;52.986;6.980;2023-04-22T05:02:35;12.48;;;10.48;;
52708;SDS011;38606;52.986;6.980;2023-04-22T05:05:01;15.45;;;10.35;;
52708;SDS011;38606;52.986;6.980;2023-04-22T05:07:27;13.07;;;10.48;;
52708;SDS011;38606;52.986;6.980;2023-04-22T05:09:52;16.40;;;12.38;;
52708;SDS011;38606;52.986;6.980;2023-04-22T05:12:18;15.10;;;11.40;;
52708;SDS011;38606;52.986;6.980;2023-04-22T05:14:44;14.93;;;11.20;;
52708;SDS011;38606;52.986;6.980;2023-04-22T05:17:11;14.35;;;11.20;;
52708;SDS011;38606;52.986;6.980;2023-04-22T05:19:38;13.65;;;11.30;;
52708;SDS011;38606;52.986;6.980;2023-04-22T05:22:05;15.77;;;10.50;;
52708;SDS011;38606;52.986;6.980;2023-04-22T05:24:31;17.25;;;11.52;;
52708;SDS011;38606;52.986;6.980;2023-04-22T05:26:58;18.35;;;11.90;;
52708;SDS011;38606;52.986;6.980;2023-04-22T05:29:24;15.13;;;11.18;;
52708;SDS011;38606;52.986;6.980;2023-04-22T05:31:51;14.88;;;11.38;;
52708;SDS011;38606;52.986;6.980;2023-04-22T05:34:17;13.80;;;11.05;;
52708;SDS011;38606;52.986;6.980;2023-04-22T05:36:42;17.90;;;11.35;;
52708;SDS011;38606;52.986;6.980;2023-04-22T05:39:08;18.02;;;11.68;;
52708;SDS011;38606;52.986;6.980;2023-04-22T05:41:34;13.63;;;11.80;;
52708;SDS011;38606;52.986;6.980;2023-04-22T05:44:00;14.25;;;11.45;;
52708;SDS011;38606;52.986;6.980;2023-04-22T05:46:25;18.80;;;11.93;;
52708;SDS011;38606;52.986;6.980;2023-04-22T05:48:51;15.65;;;11.60;;
52708;SDS011;38606;52.986;6.980;2023-04-22T05:51:18;17.05;;;11.82;;
52708;SDS011;38606;52.986;6.980;2023-04-22T05:53:44;15.80;;;11.55;;
52708;SDS011;38606;52.986;6.980;2023-04-22T05:56:10;17.88;;;12.70;;
52708;SDS011;38606;52.986;6.980;2023-04-22T05:58:36;14.68;;;11.32;;
52708;SDS011;38606;52.986;6.980;2023-04-22T06:01:02;15.70;;;11.65;;
52708;SDS011;38606;52.986;6.980;2023-04-22T06:03:27;16.45;;;11.88;;
52708;SDS011;38606;52.986;6.980;2023-04-22T06:05:54;16.00;;;11.68;;
52708;SDS011;38606;52.986;6.980;2023-04-22T06:08:19;14.68;;;10.93;;
52708;SDS011;38606;52.986;6.980;2023-04-22T06:10:45;13.25;;;11.13;;
52708;SDS011;38606;52.986;6.980;2023-04-22T06:13:11;13.13;;;10.88;;
52708;SDS011;38606;52.986;6.980;2023-04-22T06:15:37;17.52;;;11.23;;
52708;SDS011;38606;52.986;6.980;2023-04-22T06:18:02;15.52;;;11.30;;
52708;SDS011;38606;52.986;6.980;2023-04-22T06:20:28;13.93;;;10.52;;
52708;SDS011;38606;52.986;6.980;2023-04-22T06:22:56;13.88;;;10.82;;
52708;SDS011;38606;52.986;6.980;2023-04-22T06:25:23;14.07;;;11.32;;
52708;SDS011;38606;52.986;6.980;2023-04-22T06:27:48;14.80;;;11.27;;
52708;SDS011;38606;52.986;6.980;2023-04-22T06:30:14;14.50;;;11.27;;
52708;SDS011;38606;52.986;6.980;2023-04-22T06:32:40;15.40;;;10.82;;
52708;SDS011;38606;52.986;6.980;2023-04-22T06:35:06;13.68;;;10.32;;
52708;SDS011;38606;52.986;6.980;2023-04-22T06:37:32;16.98;;;11.48;;
52708;SDS011;38606;52.986;6.980;2023-04-22T06:39:58;18.80;;;11.05;;
52708;SDS011;38606;52.986;6.980;2023-04-22T06:42:24;13.50;;;10.70;;
52708;SDS011;38606;52.986;6.980;2023-04-22T06:44:49;15.10;;;10.85;;
52708;SDS011;38606;52.986;6.980;2023-04-22T06:47:15;13.27;;;11.02;;
52708;SDS011;38606;52.986;6.980;2023-04-22T06:49:41;12.82;;;10.45;;
52708;SDS011;38606;52.986;6.980;2023-04-22T06:52:08;16.05;;;10.45;;
52708;SDS011;38606;52.986;6.980;2023-04-22T06:54:34;12.95;;;10.60;;
52708;SDS011;38606;52.986;6.980;2023-04-22T06:57:00;15.85;;;11.60;;
52708;SDS011;38606;52.986;6.980;2023-04-22T06:59:26;14.00;;;10.13;;
52708;SDS011;38606;52.986;6.980;2023-04-22T07:01:52;14.30;;;10.80;;
52708;SDS011;38606;52.986;6.980;2023-04-22T07:04:17;13.90;;;10.80;;
52708;SDS011;38606;52.986;6.980;2023-04-22T07:06:43;14.35;;;10.25;;
52708;SDS011;38606;52.986;6.980;2023-04-22T07:09:09;14.00;;;10.27;;
52708;SDS011;38606;52.986;6.980;2023-04-22T07:11:35;11.55;;;10.20;;
52708;SDS011;38606;52.986;6.980;2023-04-22T07:14:00;14.52;;;10.15;;
52708;SDS011;38606;52.986;6.980;2023-04-22T07:16:26;13.82;;;10.45;;
52708;SDS011;38606;52.986;6.980;2023-04-22T07:18:52;11.60;;;10.38;;
52708;SDS011;38606;52.986;6.980;2023-04-22T07:21:18;16.90;;;10.82;;
52708;SDS011;38606;52.986;6.980;2023-04-22T07:23:44;14.32;;;10.43;;
52708;SDS011;38606;52.986;6.980;2023-04-22T07:26:10;12.27;;;10.07;;
52708;SDS011;38606;52.986;6.980;2023-04-22T07:28:35;14.27;;;10.32;;
52708;SDS011;38606;52.986;6.980;2023-04-22T07:31:01;11.95;;;9.85;;
52708;SDS011;38606;52.986;6.980;2023-04-22T07:33:27;14.40;;;10.60;;
52708;SDS011;38606;52.986;6.980;2023-04-22T07:35:53;14.10;;;10.20;;
52708;SDS011;38606;52.986;6.980;2023-04-22T07:38:19;10.60;;;8.90;;
52708;SDS011;38606;52.986;6.980;2023-04-22T07:40:45;11.90;;;10.35;;
52708;SDS011;38606;52.986;6.980;2023-04-22T07:43:10;14.23;;;9.77;;
52708;SDS011;38606;52.986;6.980;2023-04-22T07:45:36;10.40;;;9.05;;
52708;SDS011;38606;52.986;6.980;2023-04-22T07:48:02;13.55;;;9.27;;
52708;SDS011;38606;52.986;6.980;2023-04-22T07:50:28;14.82;;;10.20;;
52708;SDS011;38606;52.986;6.980;2023-04-22T07:52:54;13.65;;;9.25;;
52708;SDS011;38606;52.986;6.980;2023-04-22T07:55:20;12.80;;;9.27;;
52708;SDS011;38606;52.986;6.980;2023-04-22T07:57:46;15.77;;;10.57;;
52708;SDS011;38606;52.986;6.980;2023-04-22T08:00:13;10.88;;;8.30;;
52708;SDS011;38606;52.986;6.980;2023-04-22T08:02:40;15.55;;;9.45;;
52708;SDS011;38606;52.986;6.980;2023-04-22T08:05:06;13.77;;;9.60;;
52708;SDS011;38606;52.986;6.980;2023-04-22T08:07:32;12.73;;;8.77;;
52708;SDS011;38606;52.986;6.980;2023-04-22T08:09:58;22.17;;;9.45;;
52708;SDS011;38606;52.986;6.980;2023-04-22T08:12:24;12.48;;;8.55;;
52708;SDS011;38606;52.986;6.980;2023-04-22T08:14:49;12.13;;;8.80;;
52708;SDS011;38606;52.986;6.980;2023-04-22T08:17:15;11.48;;;8.70;;
52708;SDS011;38606;52.986;6.980;2023-04-22T08:19:41;10.43;;;8.60;;
52708;SDS011;38606;52.986;6.980;2023-04-22T08:22:07;15.07;;;9.00;;
52708;SDS011;38606;52.986;6.980;2023-04-22T08:24:32;12.10;;;9.13;;
52708;SDS011;38606;52.986;6.980;2023-04-22T08:26:58;11.02;;;8.75;;
52708;SDS011;38606;52.986;6.980;2023-04-22T08:29:24;12.00;;;8.00;;
52708;SDS011;38606;52.986;6.980;2023-04-22T08:31:50;10.38;;;7.22;;
52708;SDS011;38606;52.986;6.980;2023-04-22T08:34:16;9.68;;;7.88;;
52708;SDS011;38606;52.986;6.980;2023-04-22T08:36:41;8.85;;;7.28;;
52708;SDS011;38606;52.986;6.980;2023-04-22T08:39:07;9.23;;;7.78;;
52708;SDS011;38606;52.986;6.980;2023-04-22T08:41:34;12.57;;;8.02;;
52708;SDS011;38606;52.986;6.980;2023-04-22T08:44:00;10.27;;;7.78;;
52708;SDS011;38606;52.986;6.980;2023-04-22T08:46:27;10.38;;;8.88;;
52708;SDS011;38606;52.986;6.980;2023-04-22T08:48:54;9.43;;;7.82;;
52708;SDS011;38606;52.986;6.980;2023-04-22T08:51:27;9.90;;;8.13;;
52708;SDS011;38606;52.986;6.980;2023-04-22T08:53:52;10.60;;;7.95;;
52708;SDS011;38606;52.986;6.980;2023-04-22T08:56:18;13.80;;;7.80;;
52708;SDS011;38606;52.986;6.980;2023-04-22T08:58:46;14.48;;;8.23;;
52708;SDS011;38606;52.986;6.980;2023-04-22T09:01:12;9.35;;;7.68;;
52708;SDS011;38606;52.986;6.980;2023-04-22T09:03:39;10.68;;;7.78;;
52708;SDS011;38606;52.986;6.980;2023-04-22T09:06:06;8.40;;;7.50;;
52708;SDS011;38606;52.986;6.980;2023-04-22T09:08:34;9.95;;;6.80;;
52708;SDS011;38606;52.986;6.980;2023-04-22T09:11:00;12.43;;;7.72;;
52708;SDS011;38606;52.986;6.980;2023-04-22T09:13:27;10.07;;;7.15;;
52708;SDS011;38606;52.986;6.980;2023-04-22T09:15:53;10.77;;;7.07;;
52708;SDS011;38606;52.986;6.980;2023-04-22T09:18:19;7.90;;;6.97;;
52708;SDS011;38606;52.986;6.980;2023-04-22T09:20:45;10.18;;;7.20;;
52708;SDS011;38606;52.986;6.980;2023-04-22T09:23:13;9.07;;;6.93;;
52708;SDS011;38606;52.986;6.980;2023-04-22T09:25:39;9.38;;;7.10;;
52708;SDS011;38606;52.986;6.980;2023-04-22T09:28:05;8.68;;;6.15;;
52708;SDS011;38606;52.986;6.980;2023-04-22T09:30:35;8.75;;;6.30;;
52708;SDS011;38606;52.986;6.980;2023-04-22T09:33:02;8.50;;;5.97;;
52708;SDS011;38606;52.986;6.980;2023-04-22T09:35:31;9.10;;;6.43;;
52708;SDS011;38606;52.986;6.980;2023-04-22T09:37:58;6.55;;;5.28;;
52708;SDS011;38606;52.986;6.980;2023-04-22T09:40:25;7.40;;;6.15;;
52708;SDS011;38606;52.986;6.980;2023-04-22T09:42:55;6.75;;;5.60;;
52708;SDS011;38606;52.986;6.980;2023-04-22T09:48:10;6.55;;;5.43;;
52708;SDS011;38606;52.986;6.980;2023-04-22T09:50:38;6.18;;;4.70;;
52708;SDS011;38606;52.986;6.980;2023-04-22T09:53:06;5.82;;;4.50;;
52708;SDS011;38606;52.986;6.980;2023-04-22T09:55:34;7.70;;;4.80;;
52708;SDS011;38606;52.986;6.980;2023-04-22T09:58:05;9.00;;;5.00;;
52708;SDS011;38606;52.986;6.980;2023-04-22T10:00:39;5.88;;;4.65;;
52708;SDS011;38606;52.986;6.980;2023-04-22T10:03:15;5.93;;;4.65;;
52708;SDS011;38606;52.986;6.980;2023-04-22T10:05:41;8.23;;;5.75;;
52708;SDS011;38606;52.986;6.980;2023-04-22T10:08:09;7.75;;;6.03;;
52708;SDS011;38606;52.986;6.980;2023-04-22T10:10:36;7.35;;;5.95;;
52708;SDS011;38606;52.986;6.980;2023-04-22T10:13:03;6.22;;;5.60;;
52708;SDS011;38606;52.986;6.980;2023-04-22T10:15:40;7.95;;;5.22;;
52708;SDS011;38606;52.986;6.980;2023-04-22T10:18:15;10.13;;;5.70;;
52708;SDS011;38606;52.986;6.980;2023-04-22T10:20:46;5.53;;;5.03;;
52708;SDS011;38606;52.986;6.980;2023-04-22T10:23:14;5.43;;;4.55;;
52708;SDS011;38606;52.986;6.980;2023-04-22T10:25:46;8.30;;;5.13;;
52708;SDS011;38606;52.986;6.980;2023-04-22T10:28:14;6.03;;;4.70;;
52708;SDS011;38606;52.986;6.980;2023-04-22T10:30:41;5.95;;;4.75;;
52708;SDS011;38606;52.986;6.980;2023-04-22T10:38:35;6.13;;;4.80;;
52708;SDS011;38606;52.986;6.980;2023-04-22T10:41:05;6.72;;;4.82;;
52708;SDS011;38606;52.986;6.980;2023-04-22T10:43:44;5.10;;;4.18;;
52708;SDS011;38606;52.986;6.980;2023-04-22T10:49:10;6.18;;;4.03;;
52708;SDS011;38606;52.986;6.980;2023-04-22T10:51:41;4.22;;;3.70;;
52708;SDS011;38606;52.986;6.980;2023-04-22T10:59:40;6.15;;;4.13;;
52708;SDS011;38606;52.986;6.980;2023-04-22T11:02:14;6.28;;;4.03;;
52708;SDS011;38606;52.986;6.980;2023-04-22T11:04:40;4.38;;;3.97;;
52708;SDS011;38606;52.986;6.980;2023-04-22T11:09:50;8.20;;;4.80;;
52708;SDS011;38606;52.986;6.980;2023-04-22T11:15:05;6.50;;;4.50;;
52708;SDS011;38606;52.986;6.980;2023-04-22T11:17:31;5.05;;;4.45;;
52708;SDS011;38606;52.986;6.980;2023-04-22T11:19:58;7.57;;;5.43;;
52708;SDS011;38606;52.986;6.980;2023-04-22T11:22:24;6.25;;;5.20;;
52708;SDS011;38606;52.986;6.980;2023-04-22T11:24:57;9.30;;;5.68;;
52708;SDS011;38606;52.986;6.980;2023-04-22T11:27:24;7.72;;;4.93;;
52708;SDS011;38606;52.986;6.980;2023-04-22T11:30:00;6.30;;;5.00;;
52708;SDS011;38606;52.986;6.980;2023-04-22T11:32:34;5.20;;;4.70;;
52708;SDS011;38606;52.986;6.980;2023-04-22T11:35:05;7.07;;;4.45;;
52708;SDS011;38606;52.986;6.980;2023-04-22T11:37:39;4.43;;;3.78;;
52708;SDS011;38606;52.986;6.980;2023-04-22T11:40:06;5.85;;;4.88;;
52708;SDS011;38606;52.986;6.980;2023-04-22T11:42:34;6.63;;;5.35;;
52708;SDS011;38606;52.986;6.980;2023-04-22T11:45:04;8.20;;;5.20;;
52708;SDS011;38606;52.986;6.980;2023-04-22T11:47:30;8.45;;;4.25;;
52708;SDS011;38606;52.986;6.980;2023-04-22T11:49:57;5.95;;;4.10;;
52708;SDS011;38606;52.986;6.980;2023-04-22T11:53:11;5.78;;;4.18;;
52708;SDS011;38606;52.986;6.980;2023-04-22T11:55:12;6.10;;;4.30;;
52708;SDS011;38606;52.986;6.980;2023-04-22T11:57:39;4.40;;;3.97;;
52708;SDS011;38606;52.986;6.980;2023-04-22T12:00:09;8.05;;;4.55;;
52708;SDS011;38606;52.986;6.980;2023-04-22T12:02:37;4.88;;;3.90;;
52708;SDS011;38606;52.986;6.980;2023-04-22T12:05:03;5.10;;;4.15;;
52708;SDS011;38606;52.986;6.980;2023-04-22T12:07:34;8.02;;;4.88;;
52708;SDS011;38606;52.986;6.980;2023-04-22T12:10:00;6.38;;;4.60;;
52708;SDS011;38606;52.986;6.980;2023-04-22T12:12:27;5.97;;;5.03;;
52708;SDS011;38606;52.986;6.980;2023-04-22T12:14:53;8.43;;;5.15;;
52708;SDS011;38606;52.986;6.980;2023-04-22T12:17:25;5.93;;;4.93;;
52708;SDS011;38606;52.986;6.980;2023-04-22T12:19:54;5.05;;;4.55;;
52708;SDS011;38606;52.986;6.980;2023-04-22T12:22:26;5.88;;;4.75;;
52708;SDS011;38606;52.986;6.980;2023-04-22T12:24:56;7.00;;;4.75;;
52708;SDS011;38606;52.986;6.980;2023-04-22T12:27:22;12.07;;;5.63;;
52708;SDS011;38606;52.986;6.980;2023-04-22T12:29:52;6.25;;;5.20;;
52708;SDS011;38606;52.986;6.980;2023-04-22T12:32:20;6.03;;;5.38;;
52708;SDS011;38606;52.986;6.980;2023-04-22T12:34:47;7.32;;;5.65;;
52708;SDS011;38606;52.986;6.980;2023-04-22T12:37:13;7.97;;;5.45;;
52708;SDS011;38606;52.986;6.980;2023-04-22T12:39:39;6.55;;;5.25;;
52708;SDS011;38606;52.986;6.980;2023-04-22T12:42:05;8.80;;;5.47;;
52708;SDS011;38606;52.986;6.980;2023-04-22T12:44:32;7.20;;;5.95;;
52708;SDS011;38606;52.986;6.980;2023-04-22T12:46:58;7.40;;;5.40;;
52708;SDS011;38606;52.986;6.980;2023-04-22T12:49:24;7.30;;;5.32;;
52708;SDS011;38606;52.986;6.980;2023-04-22T12:51:50;6.47;;;4.70;;
52708;SDS011;38606;52.986;6.980;2023-04-22T12:54:17;7.50;;;5.93;;
52708;SDS011;38606;52.986;6.980;2023-04-22T12:56:44;7.97;;;5.57;;
52708;SDS011;38606;52.986;6.980;2023-04-22T12:59:10;8.88;;;5.78;;
52708;SDS011;38606;52.986;6.980;2023-04-22T13:01:37;9.48;;;4.70;;
52708;SDS011;38606;52.986;6.980;2023-04-22T13:04:02;9.52;;;5.38;;
52708;SDS011;38606;52.986;6.980;2023-04-22T13:06:28;6.95;;;5.40;;
52708;SDS011;38606;52.986;6.980;2023-04-22T13:08:56;6.25;;;5.65;;
52708;SDS011;38606;52.986;6.980;2023-04-22T13:11:23;5.93;;;4.85;;
52708;SDS011;38606;52.986;6.980;2023-04-22T13:13:49;8.00;;;4.55;;
52708;SDS011;38606;52.986;6.980;2023-04-22T13:16:16;5.28;;;4.60;;
52708;SDS011;38606;52.986;6.980;2023-04-22T13:18:42;6.85;;;5.22;;
52708;SDS011;38606;52.986;6.980;2023-04-22T13:21:07;5.85;;;4.65;;
52708;SDS011;38606;52.986;6.980;2023-04-22T13:23:33;6.53;;;5.10;;
52708;SDS011;38606;52.986;6.980;2023-04-22T13:25:59;7.13;;;5.60;;
52708;SDS011;38606;52.986;6.980;2023-04-22T13:28:26;6.22;;;5.60;;
52708;SDS011;38606;52.986;6.980;2023-04-22T13:30:53;6.28;;;5.40;;
52708;SDS011;38606;52.986;6.980;2023-04-22T13:33:19;8.00;;;5.35;;
52708;SDS011;38606;52.986;6.980;2023-04-22T13:35:45;10.35;;;5.68;;
52708;SDS011;38606;52.986;6.980;2023-04-22T13:38:11;7.18;;;5.25;;
52708;SDS011;38606;52.986;6.980;2023-04-22T13:40:36;7.53;;;5.57;;
52708;SDS011;38606;52.986;6.980;2023-04-22T13:43:02;7.93;;;5.40;;
52708;SDS011;38606;52.986;6.980;2023-04-22T13:45:28;8.90;;;5.20;;
52708;SDS011;38606;52.986;6.980;2023-04-22T13:47:54;6.03;;;4.95;;
52708;SDS011;38606;52.986;6.980;2023-04-22T13:50:20;6.78;;;5.22;;
52708;SDS011;38606;52.986;6.980;2023-04-22T13:52:46;6.50;;;5.43;;
52708;SDS011;38606;52.986;6.980;2023-04-22T13:55:12;8.60;;;5.38;;
52708;SDS011;38606;52.986;6.980;2023-04-22T13:57:39;7.60;;;5.30;;
52708;SDS011;38606;52.986;6.980;2023-04-22T14:00:05;9.68;;;5.18;;
52708;SDS011;38606;52.986;6.980;2023-04-22T14:02:31;6.05;;;5.00;;
52708;SDS011;38606;52.986;6.980;2023-04-22T14:04:57;10.35;;;5.63;;
52708;SDS011;38606;52.986;6.980;2023-04-22T14:07:23;9.88;;;4.82;;
52708;SDS011;38606;52.986;6.980;2023-04-22T14:09:49;6.70;;;4.45;;
52708;SDS011;38606;52.986;6.980;2023-04-22T14:12:15;4.45;;;3.70;;
52708;SDS011;38606;52.986;6.980;2023-04-22T14:14:40;5.18;;;4.00;;
52708;SDS011;38606;52.986;6.980;2023-04-22T14:17:06;6.30;;;3.92;;
52708;SDS011;38606;52.986;6.980;2023-04-22T14:19:32;4.80;;;3.70;;
52708;SDS011;38606;52.986;6.980;2023-04-22T14:22:01;5.68;;;3.40;;
52708;SDS011;38606;52.986;6.980;2023-04-22T14:24:27;5.57;;;3.17;;
52708;SDS011;38606;52.986;6.980;2023-04-22T14:26:53;6.15;;;3.40;;
52708;SDS011;38606;52.986;6.980;2023-04-22T14:29:20;8.43;;;4.15;;
52708;SDS011;38606;52.986;6.980;2023-04-22T14:31:46;8.48;;;4.45;;
52708;SDS011;38606;52.986;6.980;2023-04-22T14:34:13;10.10;;;4.63;;
52708;SDS011;38606;52.986;6.980;2023-04-22T14:36:39;8.88;;;4.55;;
52708;SDS011;38606;52.986;6.980;2023-04-22T14:39:05;8.80;;;4.70;;
52708;SDS011;38606;52.986;6.980;2023-04-22T14:41:31;6.30;;;4.80;;
52708;SDS011;38606;52.986;6.980;2023-04-22T14:43:56;7.05;;;4.55;;
52708;SDS011;38606;52.986;6.980;2023-04-22T14:46:22;6.45;;;4.90;;
52708;SDS011;38606;52.986;6.980;2023-04-22T14:48:48;5.38;;;4.80;;
52708;SDS011;38606;52.986;6.980;2023-04-22T14:51:13;5.75;;;5.10;;
52708;SDS011;38606;52.986;6.980;2023-04-22T14:53:39;7.95;;;4.68;;
52708;SDS011;38606;52.986;6.980;2023-04-22T14:56:06;7.45;;;4.88;;